Aérodrome :
LOGIN :

S'inscrire | Disclaimer

   EN    FR    IT 

 










Légende :    VFR   VFR Marginal   IFR   IFR Intensif   IFR Très Intensif
Visi : 
Plafond : 
>= 8 km
>= 3000ft
5 à 8 km
1000 à 3000 ft
1500m à 5 km
500 à 1000 ft
800 à 1500m
200 à 500 ft
< 800m
< 200 ft
Symboles :   Orages  Brouillard  Fortes neiges  Fortes précipitations  Vent > 20 kt
SIGMETs :   Divers  Orages  Givrage  Turbulence  Onde Orograph.  Cendres Volcan.







- Altitude de l'aérodrome : 102 ft
- Code IATA : EXT
- Voir les cartes d'approche


EGTE - Exeter

DERNIER METAR :
  • 201650Z 03010KT 340V060 9999 SCT032 06/02 Q1005

METARs EXPIRÉS :
  • 201620Z 03008KT 9999 FEW025 SCT037 05/01 Q1005
  • 201550Z 03007KT 9999 FEW025 SCT037 05/01 Q1005
  • 201520Z 03013KT 9999 SCT025 SCT042 06/01 Q1005
  • 201450Z 03014KT 9999 SCT027 SCT042 06/01 Q1005
  • 201420Z 04011KT 9999 SCT027 SCT042 06/01 Q1006

TAF TAF EGTE
Valide du 20 à 15h jusqu'au 21 à 00h UTC


201356Z 2015/2024 04013KT 9999 SCT030
PROB30
TEMPO 2015/2024 7000 SHRA BKN012
Pas de NOTAMs connus pour ce terrain.
2 SIGMETs publiés pour la FIR London (EGTT) :
 
Onde orographique forte
EGTT SIGMET 03 VALID 201700/202100 EGRR
EGTT LONDON FIR SEV MTW FCST WI N5500 W00220 - N5322 W00134 - N5158 W00304 - N5149 W00510 - N5500 W00447 - N5500 W00220 FL030/120 MOV N 10KT NC=
Onde orographique forte
EGTT SIGMET 02 VALID 201300/201700 EGRR
EGTT LONDON FIR SEV MTW FCST WI N5322 W00134 - N5149 W00328 - N5130 W00504 - N5500 W00447 - N5500 W00220 - N5322 W00134 FL030/120 STNR NC=



MET'MAP, la Météo Aéronautique d'un coup d'oeil ! - Copyright ORBIFLY Décembre 2007 - Disclaimer

ORBIFLY MET'MAP TEAM :

Programmation & Développement : Alexandra Zaïnal
Conception & Développement : Baudouin d'Aumeries
Co-Programmation & Développement : Marc-Olivier Méhu
Soutien technique & logistique : Manuel Goepfert

Contact : metmap@orbifly.com




SOURCES & CREDITS :

   NOAA